Terminal Aerodrome Forecast
Issued by NWS

Home | Current Version | Previous Version | Text Only | Print | Product List | Glossary Off
Versions: 1 2 3 4 5 6 7 8 9 10 11 12 13 14

000
FTUS43 KICT 071948 AAA
TAFSLN
TAF AMD
KSLN 071948Z 0720/0818 01013KT 1 1/2SM -SN SCT015 OVC025
      TEMPO 0720/0722 3SM -SN BKN013 OVC035
     FM072200 01009KT P6SM OVC035
     FM080000 34007KT P6SM OVC035
     FM080300 30007KT P6SM SCT050=

USA.gov is the U.S. government's official web portal to all federal, state and local government web resources and services.